Wednesday, September 19, 2018, 3:25 PM EDT
Back to Local

KUCP, New Castle, New Castle Municipal Airport

Location: Edinburg, PA, United States Lat: 41.025
Local Time: 3:25 PM EDT (19:25 GMT) Lon: -80.413
Time Zone: US/Eastern Elev: 1072 ft

Show me the last for .
Show Decoded

2018-09-19 14:56 METAR KUCP 191856Z AUTO 34005KT 10SM FEW029 25/18 A3005 RMK AO2 SLP185 T02500178
                 =
2018-09-19 14:26 METAR KUCP 191826Z AUTO 35005KT 10SM SCT026 25/18 A3005 RMK AO2 =
2018-09-19 14:13 METAR KUCP 191813Z AUTO VRB04KT 10SM BKN026 24/18 A3006 RMK AO2 =
2018-09-19 13:56 METAR KUCP 191756Z AUTO 36006KT 10SM SCT026 24/18 A3006 RMK AO2 SLP187 T02440178
                 10244 20183 56001 =
2018-09-19 12:56 METAR KUCP 191656Z AUTO 32007KT 10SM FEW024 24/18 A3007 RMK AO2 SLP190 T02390178
                 =
2018-09-19 11:56 METAR KUCP 191556Z AUTO 33007KT 8SM CLR 23/17 A3005 RMK AO2 SLP186 T02280172 =
2018-09-19 10:56 METAR KUCP 191456Z AUTO VRB05KT 10SM CLR 21/17 A3006 RMK AO2 SLP190 T02110172
                 50003 =
2018-09-19 09:56 METAR KUCP 191356Z AUTO 33005KT 10SM SCT011 OVC048 19/17 A3006 RMK AO2 SLP190
                 T01940172 =
2018-09-19 09:48 METAR KUCP 191348Z AUTO 32005KT 10SM BKN011 OVC048 19/17 A3006 RMK AO2 =
2018-09-19 08:56 METAR KUCP 191256Z AUTO 33004KT 10SM SCT042 BKN100 19/17 A3005 RMK AO2 SLP186
                 T01890172 =
2018-09-19 07:56 METAR KUCP 191156Z AUTO 00000KT 10SM BKN039 BKN050 OVC100 18/17 A3003 RMK AO2
                 SLP179 60000 T01830172 10189 20178 53015 =
2018-09-19 07:08 METAR KUCP 191108Z AUTO 26003KT 5SM BR BKN037 BKN046 BKN120 18/17 A3002 RMK AO2
                 =
2018-09-19 06:56 METAR KUCP 191056Z AUTO 00000KT 2 1/2SM BR SCT035 BKN120 18/18 A3002 RMK AO2
                 RAB02E51 SLP172 P0000 T01780178 =
2018-09-19 05:56 METAR KUCP 190956Z AUTO 00000KT 5SM BR SCT110 18/18 A2998 RMK AO2 SLP161
                 T01830178 =
2018-09-19 05:30 METAR KUCP 190930Z AUTO 00000KT 8SM FEW006 SCT060 SCT080 18/18 A2999 RMK AO2 =
2018-09-19 04:56 METAR KUCP 190856Z AUTO 00000KT 6SM BR OVC006 18/18 A2999 RMK AO2 SLP162
                 T01830178 53009 =
2018-09-19 04:42 METAR KUCP 190842Z AUTO 33003KT 5SM BR BKN006 18/18 A2997 RMK AO2 CIG 005V009 =
2018-09-19 04:28 METAR KUCP 190828Z AUTO 00000KT 2SM BR BKN008 18/17 A2997 RMK AO2 VIS 1 1/4V3
                 CIG 005V009 =
2018-09-19 04:19 METAR KUCP 190819Z AUTO 00000KT 3SM BR SCT006 18/18 A2996 RMK AO2 =
2018-09-19 03:56 METAR KUCP 190756Z AUTO 00000KT 3SM BR CLR 18/18 A2995 RMK AO2 SLP150 T01780178
                 =
2018-09-19 03:31 METAR KUCP 190731Z AUTO 00000KT 3SM BR FEW007 18/18 A2995 RMK AO2 =
2018-09-19 03:19 METAR KUCP 190719Z AUTO 00000KT 1 1/4SM BR FEW007 18/18 A2996 RMK AO2 VIS 3/4V3
                 =
2018-09-19 03:08 METAR KUCP 190708Z AUTO 18003KT 3/4SM BR VV007 18/18 A2995 RMK AO2 RVRNO =
2018-09-19 03:02 METAR KUCP 190702Z AUTO 19003KT 1 1/2SM BR FEW007 18/18 A2996 RMK AO2 =
2018-09-19 02:56 METAR KUCP 190656Z AUTO 19003KT 2 1/2SM BR CLR 18/18 A2996 RMK AO2 SLP153
                 T01780178 =
2018-09-19 02:48 METAR KUCP 190648Z AUTO 18003KT 2 1/2SM BR CLR 18/17 A2996 RMK AO2 VIS 2V3 =
2018-09-19 02:12 METAR KUCP 190612Z AUTO 00000KT 4SM BR CLR 18/17 A2996 RMK AO2 =
2018-09-19 01:56 METAR KUCP 190556Z AUTO 00000KT 2SM BR CLR 18/17 A2995 RMK AO2 SLP151 T01780172
                 10211 20178 58001 =
2018-09-19 01:40 METAR KUCP 190540Z AUTO 00000KT 2SM BR CLR 18/17 A2995 RMK AO2 =
2018-09-19 01:10 METAR KUCP 190510Z AUTO 00000KT 1 3/4SM BR CLR 18/17 A2996 RMK AO2 =
2018-09-19 01:00 METAR KUCP 190500Z AUTO 00000KT 3SM BR FEW017 18/18 A2996 RMK AO2 =
2018-09-19 00:56 METAR KUCP 190456Z AUTO 00000KT 1 1/2SM BR SCT017 18/17 A2996 RMK AO2 VIS 1/2V5
                 SLP155 T01780172 402780178 =
2018-09-19 00:50 METAR KUCP 190450Z AUTO 00000KT 1SM BR VV017 18/17 A2996 RMK AO2 402780178 RVRNO
                 =
2018-09-19 00:39 METAR KUCP 190439Z AUTO 00000KT 1/2SM FG BKN018 18/18 A2996 RMK AO2 RVRNO =
2018-09-19 00:35 METAR KUCP 190435Z AUTO 00000KT 1SM BR BKN018 18/18 A2997 RMK AO2 RVRNO =
2018-09-19 00:31 METAR KUCP 190431Z AUTO 00000KT 2 1/2SM BR BKN016 18/18 A2997 RMK AO2 =
2018-09-19 00:28 METAR KUCP 190428Z AUTO 00000KT 2SM BR SCT016 18/18 A2997 RMK AO2 VIS 1/2V5 =
2018-09-19 00:19 METAR KUCP 190419Z AUTO 00000KT 1SM BR VV015 18/18 A2996 RMK AO2 RVRNO =
2018-09-19 00:04 METAR KUCP 190404Z AUTO 00000KT 2SM BR FEW015 18/17 A2996 RMK AO2 VIS 3/4V3 =
2018-09-18 23:56 METAR KUCP 190356Z AUTO 00000KT 1SM BR VV015 18/18 A2996 RMK AO2 SLP155
                 T01830178 RVRNO =
2018-09-18 23:36 METAR KUCP 190336Z AUTO 00000KT 1 3/4SM BR CLR 18/17 A2996 RMK AO2 =
2018-09-18 22:56 METAR KUCP 190256Z AUTO 00000KT 5SM BR CLR 19/18 A2996 RMK AO2 SLP153 T01890178
                 52008 =
2018-09-18 21:56 METAR KUCP 190156Z AUTO 00000KT 3SM BR CLR 19/18 A2995 RMK AO2 SLP150 T01940183
                 =
2018-09-18 20:56 METAR KUCP 190056Z AUTO 00000KT 8SM CLR 20/19 A2994 RMK AO2 SLP148 T02000189 =
2018-09-18 19:56 METAR KUCP 182356Z AUTO 00000KT 10SM FEW055 21/19 A2993 RMK AO2 SLP145 T02110194
                 10278 20211 53007 =
2018-09-18 18:56 METAR KUCP 182256Z AUTO 33003KT 10SM CLR 26/19 A2992 RMK AO2 SLP141 T02560194 =
2018-09-18 17:56 METAR KUCP 182156Z AUTO 31005KT 10SM CLR 27/19 A2991 RMK AO2 SLP135 T02720189 =
2018-09-18 16:56 METAR KUCP 182056Z AUTO VRB03KT 10SM FEW038 27/21 A2991 RMK AO2 SLP135 T02720206
                 56008 =
2018-09-18 15:56 METAR KUCP 181956Z AUTO 27006KT 10SM BKN035 BKN043 27/21 A2991 RMK AO2 SLP136
                 T02720206 =

Support USWX by starting your Amazon purchase here.